Time;durP1;ratioP1;P1;durP2;ratioP2;P2;SDS_P1;SDS_P2;PMS_P1;PMS_P2;Temp;Humidity;BMP_temperature;BMP_pressure;BME280_temperature;BME280_humidity;BME280_pressure;Samples;Min_cycle;Max_cycle;Signal;HPM_P1;HPM_P2
2021/12/20 00:00:16;;;;;;;10.10;1.52;;;8.10;99.90;;;;;;4957086;28;20055;-37
2021/12/20 00:02:44;;;;;;;9.02;1.75;;;8.10;99.90;;;;;;4956899;29;20038;-37
2021/12/20 00:05:09;;;;;;;;;;;8.10;99.90;;;;;;4956978;29;20518;-39
2021/12/20 00:07:35;;;;;;;11.52;1.60;;;8.10;99.90;;;;;;4957111;29;19910;-39
2021/12/20 00:10:01;;;;;;;8.38;1.58;;;8.10;99.90;;;;;;4956786;29;20058;-41
2021/12/20 00:12:27;;;;;;;14.73;1.77;;;8.10;99.90;;;;;;4957078;29;20395;-38
2021/12/20 00:14:52;;;;;;;16.05;1.52;;;8.10;99.90;;;;;;4956575;29;20020;-38
2021/12/20 00:17:18;;;;;;;21.55;1.85;;;8.10;99.90;;;;;;4955464;29;20123;-39
2021/12/20 00:19:44;;;;;;;10.77;1.80;;;8.10;99.90;;;;;;4956642;29;20027;-39
2021/12/20 00:22:09;;;;;;;11.90;1.98;;;8.10;99.90;;;;;;4956805;29;20471;-37
2021/12/20 00:24:35;;;;;;;14.05;2.17;;;8.10;99.90;;;;;;4955349;29;20028;-39
2021/12/20 00:27:04;;;;;;;8.07;2.28;;;8.00;99.90;;;;;;4956829;29;20058;-39
2021/12/20 00:29:30;;;;;;;14.82;2.45;;;8.10;99.90;;;;;;4956238;29;20107;-39
2021/12/20 00:31:56;;;;;;;13.10;1.52;;;8.10;99.90;;;;;;4956354;29;20110;-40
2021/12/20 00:34:21;;;;;;;11.38;1.58;;;8.10;99.90;;;;;;4956580;29;20019;-38
2021/12/20 00:36:56;;;;;;;7.95;1.35;;;8.10;99.90;;;;;;4955726;29;20055;-38
2021/12/20 00:42:06;;;;;;;10.43;2.17;;;8.10;99.90;;;;;;4955558;29;20138;-39
2021/12/20 00:44:32;;;;;;;11.00;2.20;;;8.10;99.90;;;;;;4956019;29;20035;-38
2021/12/20 00:46:57;;;;;;;15.65;2.15;;;8.10;99.90;;;;;;4956092;29;20063;-37
2021/12/20 00:49:23;;;;;;;17.15;2.28;;;8.00;99.90;;;;;;4954830;29;20035;-37
2021/12/20 00:51:49;;;;;;;13.80;2.30;;;8.00;99.90;;;;;;4951468;29;20124;-38
2021/12/20 00:54:14;;;;;;;14.45;2.65;;;8.00;99.90;;;;;;4955645;29;20102;-37
2021/12/20 00:56:40;;;;;;;15.23;2.65;;;7.90;99.90;;;;;;4955680;29;20024;-38
2021/12/20 00:59:07;;;;;;;13.95;2.22;;;7.90;99.90;;;;;;4955724;29;20423;-39
2021/12/20 01:01:33;;;;;;;6.87;1.90;;;7.90;99.90;;;;;;4956130;29;20031;-39
2021/12/20 01:03:59;;;;;;;7.75;1.75;;;7.90;99.90;;;;;;4956042;29;20030;-38
2021/12/20 01:06:24;;;;;;;12.80;2.03;;;7.80;99.90;;;;;;4955313;29;20038;-39
2021/12/20 01:08:51;;;;;;;16.67;1.45;;;7.90;99.90;;;;;;4943819;29;20027;-39
2021/12/20 01:11:22;;;;;;;16.48;1.90;;;7.90;99.90;;;;;;4938525;29;20476;-37
2021/12/20 01:13:48;;;;;;;10.45;1.42;;;7.90;99.90;;;;;;4956215;29;20050;-38
2021/12/20 01:16:14;;;;;;;8.15;1.70;;;7.90;99.90;;;;;;4956191;29;20051;-39
2021/12/20 01:18:40;;;;;;;10.32;1.90;;;7.80;99.90;;;;;;4956108;29;20161;-39
2021/12/20 01:21:07;;;;;;;12.93;2.08;;;7.90;99.90;;;;;;4955854;29;20487;-38
2021/12/20 01:23:32;;;;;;;19.58;1.90;;;7.90;99.90;;;;;;4955580;29;20467;-37
2021/12/20 01:25:58;;;;;;;17.45;2.20;;;7.90;99.90;;;;;;4955581;29;20024;-34
2021/12/20 01:28:24;;;;;;;8.88;1.55;;;7.90;99.90;;;;;;4955065;29;20380;-39
2021/12/20 01:30:49;;;;;;;17.40;2.40;;;7.90;99.90;;;;;;4955639;29;20031;-39
2021/12/20 01:33:15;;;;;;;16.60;1.88;;;7.90;99.90;;;;;;4955510;29;20395;-58
2021/12/20 01:35:41;;;;;;;10.13;1.88;;;7.90;99.90;;;;;;4955061;29;20074;-38
2021/12/20 01:38:08;;;;;;;19.02;1.70;;;7.90;99.90;;;;;;4951628;29;20074;-37
2021/12/20 01:40:37;;;;;;;13.73;1.83;;;7.90;99.90;;;;;;4934710;29;20519;-37
2021/12/20 01:43:05;;;;;;;15.48;2.95;;;7.90;99.90;;;;;;4936281;29;20083;-47
2021/12/20 01:45:31;;;;;;;21.08;1.73;;;7.90;99.90;;;;;;4931775;29;20488;-39
2021/12/20 01:48:05;;;;;;;14.20;1.23;;;7.90;99.90;;;;;;4931640;29;20119;-36
2021/12/20 01:50:41;;;;;;;10.68;1.73;;;7.90;99.90;;;;;;4927981;29;20030;-41
2021/12/20 01:53:15;;;;;;;15.48;1.70;;;7.90;99.90;;;;;;4935723;29;20103;-52
2021/12/20 01:55:41;;;;;;;13.13;1.95;;;8.00;99.90;;;;;;4934382;29;20499;-44
2021/12/20 01:58:07;;;;;;;21.55;1.85;;;7.90;99.90;;;;;;4936231;29;20028;-39
2021/12/20 02:00:34;;;;;;;18.77;2.15;;;7.90;99.90;;;;;;4935997;29;20551;-38
2021/12/20 02:03:02;;;;;;;9.73;2.42;;;7.90;99.90;;;;;;4923963;29;20036;-39
2021/12/20 02:10:44;;;;;;;14.77;2.05;;;7.80;99.90;;;;;;4936245;29;20123;-39
2021/12/20 02:13:12;;;;;;;8.75;0.98;;;7.80;99.90;;;;;;4935746;29;20038;-37
2021/12/20 02:15:37;;;;;;;15.05;2.13;;;7.80;99.90;;;;;;4929014;29;20024;-37
2021/12/20 02:18:03;;;;;;;13.15;2.08;;;7.80;99.90;;;;;;4930289;29;20108;-36
2021/12/20 02:20:31;;;;;;;16.42;2.13;;;7.80;99.90;;;;;;4935846;29;20500;-37
2021/12/20 02:22:58;;;;;;;17.30;1.70;;;7.70;99.90;;;;;;4935183;29;20043;-36
2021/12/20 02:25:25;;;;;;;15.77;2.20;;;7.70;99.90;;;;;;4935572;29;20070;-38
2021/12/20 02:27:51;;;;;;;17.23;2.70;;;7.70;99.90;;;;;;4934997;29;20126;-38
2021/12/20 02:38:27;;;;;;;18.85;1.55;;;7.70;99.90;;;;;;4935087;29;20038;-41
2021/12/20 02:41:03;;;;;;;17.90;3.17;;;7.70;99.90;;;;;;4931620;29;20035;-36
2021/12/20 02:43:30;;;;;;;11.43;1.10;;;7.80;99.90;;;;;;4930354;29;20080;-34
2021/12/20 02:46:00;;;;;;;16.98;3.45;;;7.70;99.90;;;;;;4935489;29;20546;-36
2021/12/20 02:48:26;;;;;;;33.92;4.97;;;7.80;99.90;;;;;;4934133;29;20066;-31
2021/12/20 02:50:56;;;;;;;18.83;2.30;;;7.70;99.90;;;;;;4916383;29;20489;-33
2021/12/20 02:53:22;;;;;;;22.83;2.05;;;7.70;99.90;;;;;;4928541;29;20488;-38
2021/12/20 02:55:47;;;;;;;16.27;1.45;;;7.70;99.90;;;;;;4934441;29;20027;-38
2021/12/20 02:58:13;;;;;;;7.57;1.60;;;7.70;99.90;;;;;;4929941;29;20035;-34
2021/12/20 03:00:39;;;;;;;13.85;1.58;;;7.70;99.90;;;;;;4935359;29;20028;-37
2021/12/20 03:03:06;;;;;;;9.98;1.80;;;7.70;99.90;;;;;;4938587;29;20031;-36
2021/12/20 03:05:32;;;;;;;10.77;1.48;;;7.70;99.90;;;;;;4939069;29;20086;-40
2021/12/20 03:07:58;;;;;;;12.45;1.65;;;7.70;99.90;;;;;;4938581;29;20491;-33
2021/12/20 03:10:25;;;;;;;23.25;3.65;;;7.70;99.90;;;;;;4938876;29;20028;-31
2021/12/20 03:12:52;;;;;;;13.63;2.05;;;7.70;99.90;;;;;;4939113;29;20023;-34
2021/12/20 03:15:23;;;;;;;10.07;2.08;;;7.70;99.90;;;;;;4938234;29;20023;-31
2021/12/20 03:17:52;;;;;;;18.73;1.73;;;7.70;99.90;;;;;;4939128;29;20032;-35
2021/12/20 03:20:20;;;;;;;11.27;1.55;;;7.70;99.90;;;;;;4938750;29;20030;-32
2021/12/20 03:22:46;;;;;;;8.35;2.05;;;7.70;99.90;;;;;;4938992;29;20075;-34
2021/12/20 03:25:12;;;;;;;12.38;2.50;;;7.70;99.90;;;;;;4937356;29;20436;-33
2021/12/20 03:27:37;;;;;;;13.77;2.28;;;7.70;99.90;;;;;;4938414;29;20114;-39
2021/12/20 03:30:08;;;;;;;15.23;2.47;;;7.70;99.90;;;;;;4937812;29;20538;-32
2021/12/20 03:32:34;;;;;;;11.48;1.88;;;7.70;99.90;;;;;;4938651;29;20028;-32
2021/12/20 03:34:59;;;;;;;14.65;1.83;;;7.70;99.90;;;;;;4938139;29;20035;-32
2021/12/20 03:37:25;;;;;;;7.95;1.20;;;7.60;99.90;;;;;;4938439;29;20026;-36
2021/12/20 03:39:51;;;;;;;16.77;2.60;;;7.60;99.90;;;;;;4933689;29;20047;-38
2021/12/20 03:42:18;;;;;;;12.93;2.17;;;7.70;99.90;;;;;;4956518;29;20548;-32
2021/12/20 03:44:45;;;;;;;7.60;1.10;;;7.70;99.90;;;;;;4957497;29;20012;-39
2021/12/20 03:47:12;;;;;;;6.50;1.77;;;7.70;99.90;;;;;;4957550;29;20019;-35
2021/12/20 03:49:40;;;;;;;20.35;2.30;;;7.60;99.90;;;;;;4956986;29;20510;-36
2021/12/20 03:52:07;;;;;;;;;;;7.60;99.90;;;;;;4957295;29;20522;-37
2021/12/20 03:54:33;;;;;;;13.60;1.83;;;7.60;99.90;;;;;;4957540;29;20313;-41
2021/12/20 03:56:59;;;;;;;18.40;2.05;;;7.70;99.90;;;;;;4957051;29;20033;-37
2021/12/20 03:59:25;;;;;;;12.32;1.25;;;7.70;99.90;;;;;;4956786;29;20027;-34
2021/12/20 04:01:51;;;;;;;9.63;1.63;;;7.60;99.90;;;;;;4956601;29;20031;-37
2021/12/20 04:04:17;;;;;;;11.45;1.10;;;7.60;99.90;;;;;;4957222;29;20043;-33
2021/12/20 04:06:42;;;;;;;15.10;3.55;;;7.70;99.90;;;;;;4956474;29;20117;-34
2021/12/20 04:09:08;;;;;;;10.30;2.00;;;7.70;99.90;;;;;;4956076;29;20603;-39
2021/12/20 04:11:34;;;;;;;7.38;1.27;;;7.70;99.90;;;;;;4956891;28;20130;-35
2021/12/20 04:14:01;;;;;;;12.93;1.40;;;7.70;99.90;;;;;;4955802;29;20106;-37
2021/12/20 04:16:27;;;;;;;13.35;1.38;;;7.70;99.90;;;;;;4957023;29;20041;-33
2021/12/20 04:18:52;;;;;;;8.98;1.33;;;7.70;99.90;;;;;;4956497;29;20023;-41
2021/12/20 04:21:19;;;;;;;8.40;1.48;;;7.70;99.90;;;;;;4957115;29;20063;-32
2021/12/20 04:23:44;;;;;;;15.23;1.92;;;7.70;99.90;;;;;;4939495;29;20030;-32
2021/12/20 04:26:10;;;;;;;12.82;1.70;;;7.70;99.90;;;;;;4956647;28;20028;-37
2021/12/20 04:28:35;;;;;;;16.08;2.03;;;7.70;99.90;;;;;;4956323;29;20030;-40
2021/12/20 04:31:01;;;;;;;10.75;2.03;;;7.70;99.90;;;;;;4956855;29;20074;-35
2021/12/20 04:33:27;;;;;;;10.88;2.28;;;7.60;99.90;;;;;;4956507;29;20019;-37
2021/12/20 04:35:53;;;;;;;6.15;1.52;;;7.70;99.90;;;;;;4956783;29;20016;-40
2021/12/20 04:38:19;;;;;;;13.27;1.90;;;7.70;99.90;;;;;;4956820;29;20077;-35
2021/12/20 04:40:45;;;;;;;10.80;1.83;;;7.70;99.90;;;;;;4955724;28;20075;-39
2021/12/20 04:43:10;;;;;;;18.92;1.50;;;7.60;99.90;;;;;;4939484;29;20081;-38
2021/12/20 04:45:36;;;;;;;9.27;1.13;;;7.60;99.90;;;;;;4956517;28;20082;-44
2021/12/20 04:48:03;;;;;;;11.57;1.60;;;7.60;99.90;;;;;;4956207;28;20054;-37
2021/12/20 04:50:29;;;;;;;11.67;1.53;;;7.60;99.90;;;;;;4956290;29;20027;-40
2021/12/20 04:53:15;;;;;;;22.73;2.42;;;7.60;99.90;;;;;;4927218;29;20024;-34
2021/12/20 04:55:40;;;;;;;7.40;1.90;;;7.60;99.90;;;;;;4954135;29;20515;-37
2021/12/20 04:58:06;;;;;;;15.27;1.25;;;7.60;99.90;;;;;;4955877;28;20073;-34
2021/12/20 05:00:35;;;;;;;12.88;1.60;;;7.60;99.90;;;;;;4937462;29;20427;-33
2021/12/20 05:03:01;;;;;;;11.32;0.98;;;7.60;99.90;;;;;;4956192;29;20475;-37
2021/12/20 05:05:28;;;;;;;12.35;1.83;;;7.60;99.90;;;;;;4955968;29;20031;-34
2021/12/20 05:07:55;;;;;;;14.90;1.77;;;7.60;99.90;;;;;;4955800;29;20480;-34
2021/12/20 05:10:32;;;;;;;9.90;2.03;;;7.60;99.90;;;;;;4956120;29;20475;-34
2021/12/20 05:13:00;;;;;;;13.20;2.35;;;7.50;99.90;;;;;;4955885;29;20131;-33
2021/12/20 05:15:27;;;;;;;17.10;2.97;;;7.50;99.90;;;;;;4955804;29;20484;-35
2021/12/20 05:17:52;;;;;;;11.68;2.08;;;7.60;99.90;;;;;;4938377;29;20399;-33
2021/12/20 05:20:18;;;;;;;12.95;2.17;;;7.50;99.90;;;;;;4954961;29;20035;-37
2021/12/20 05:22:44;;;;;;;10.52;1.98;;;7.50;99.90;;;;;;4955413;29;20031;-36
2021/12/20 05:25:10;;;;;;;9.63;1.90;;;7.50;99.90;;;;;;4955230;28;20518;-37
2021/12/20 05:27:36;;;;;;;14.65;2.28;;;7.50;99.90;;;;;;4955556;28;20519;-31
2021/12/20 05:30:04;;;;;;;11.20;1.75;;;7.40;99.90;;;;;;4955282;28;20019;-32
2021/12/20 05:32:30;;;;;;;6.75;1.30;;;7.50;99.90;;;;;;4955515;29;20030;-40
2021/12/20 05:34:55;;;;;;;20.23;2.10;;;7.50;99.90;;;;;;4955486;29;20023;-33
2021/12/20 05:37:21;;;;;;;9.40;0.98;;;7.60;99.90;;;;;;4955114;29;20031;-38
2021/12/20 05:39:47;;;;;;;10.98;1.45;;;7.50;99.90;;;;;;4955010;29;20027;-35
2021/12/20 05:42:13;;;;;;;10.88;2.25;;;7.50;99.90;;;;;;4955024;29;20586;-32
2021/12/20 05:44:39;;;;;;;9.75;0.82;;;7.50;99.90;;;;;;4954842;28;22291;-37
2021/12/20 05:47:04;;;;;;;17.65;1.88;;;7.50;99.90;;;;;;4954887;29;20526;-34
2021/12/20 05:49:31;;;;;;;8.23;1.10;;;7.50;99.90;;;;;;4954881;29;20167;-42
2021/12/20 05:51:58;;;;;;;8.80;1.05;;;7.50;99.90;;;;;;4954988;29;20034;-33
2021/12/20 05:54:24;;;;;;;8.85;1.38;;;7.50;99.90;;;;;;4954362;28;20038;-40
2021/12/20 05:56:49;;;;;;;9.85;1.20;;;7.50;99.90;;;;;;4954847;29;20027;-36
2021/12/20 05:59:15;;;;;;;4.47;1.10;;;7.60;99.90;;;;;;4954834;29;20031;-33
2021/12/20 06:01:41;;;;;;;6.93;1.80;;;7.50;99.90;;;;;;4954823;29;20595;-33
2021/12/20 06:04:07;;;;;;;16.20;1.65;;;7.60;99.90;;;;;;4954442;29;20050;-37
2021/12/20 06:06:32;;;;;;;11.80;1.95;;;7.60;99.90;;;;;;4954737;29;20019;-36
2021/12/20 06:08:58;;;;;;;8.48;1.40;;;7.60;99.90;;;;;;4954798;29;20030;-35
2021/12/20 06:11:24;;;;;;;5.50;1.38;;;7.50;99.90;;;;;;4954894;29;20055;-36
2021/12/20 06:13:51;;;;;;;9.82;1.35;;;7.50;99.90;;;;;;4954685;29;20027;-38
2021/12/20 06:16:17;;;;;;;10.70;1.33;;;7.50;99.90;;;;;;4954714;29;20094;-35
2021/12/20 06:18:43;;;;;;;14.52;2.00;;;7.50;99.90;;;;;;4940491;29;20488;-40
2021/12/20 06:21:09;;;;;;;10.52;0.93;;;7.50;99.90;;;;;;4954052;29;20059;-35
2021/12/20 06:23:34;;;;;;;8.55;1.10;;;7.40;99.90;;;;;;4954517;29;20019;-50
2021/12/20 06:26:00;;;;;;;16.20;1.98;;;7.40;99.90;;;;;;4954618;29;20066;-37
2021/12/20 06:28:26;;;;;;;13.70;1.25;;;7.30;99.90;;;;;;4954257;29;20188;-36
2021/12/20 06:30:52;;;;;;;7.47;1.00;;;7.20;99.90;;;;;;4952923;29;20499;-31
2021/12/20 06:33:17;;;;;;;5.57;0.88;;;7.20;99.90;;;;;;4954475;29;20023;-36
2021/12/20 06:35:43;;;;;;;7.70;0.98;;;7.20;99.90;;;;;;4953362;29;20043;-38
2021/12/20 06:38:11;;;;;;;8.52;1.10;;;7.10;99.90;;;;;;4936770;29;20035;-39
2021/12/20 06:40:37;;;;;;;12.45;1.27;;;7.00;99.90;;;;;;4953552;28;20124;-37
2021/12/20 06:43:04;;;;;;;7.88;1.00;;;7.00;99.90;;;;;;4954202;29;20044;-34
2021/12/20 06:45:29;;;;;;;8.98;0.93;;;7.00;99.90;;;;;;4954392;29;20030;-31
2021/12/20 06:47:56;;;;;;;4.57;0.90;;;7.00;99.90;;;;;;4954116;29;20027;-34
2021/12/20 06:50:21;;;;;;;4.85;1.02;;;7.00;99.90;;;;;;4954347;29;20102;-34
2021/12/20 06:52:47;;;;;;;12.32;1.10;;;7.00;99.90;;;;;;4950756;29;20125;-35
2021/12/20 06:55:13;;;;;;;9.02;2.28;;;7.00;99.90;;;;;;4945843;29;20551;-38
2021/12/20 06:57:41;;;;;;;8.52;1.33;;;7.00;99.90;;;;;;4917543;29;20049;-35
2021/12/20 07:00:07;;;;;;;9.68;1.13;;;7.00;99.90;;;;;;4935136;29;20032;-33
2021/12/20 07:02:33;;;;;;;7.35;1.42;;;7.00;99.90;;;;;;4952574;29;20031;-31
2021/12/20 07:04:58;;;;;;;8.43;1.52;;;7.10;99.90;;;;;;4954604;29;20032;-37
2021/12/20 07:07:24;;;;;;;9.93;1.05;;;7.10;99.90;;;;;;4954248;29;20031;-36
2021/12/20 07:09:50;;;;;;;8.90;1.38;;;7.10;99.90;;;;;;4953994;29;20062;-40
2021/12/20 07:12:15;;;;;;;7.30;0.90;;;7.10;99.90;;;;;;4954253;29;20027;-34
2021/12/20 07:14:42;;;;;;;12.95;1.33;;;7.10;99.90;;;;;;4954505;29;20020;-35
2021/12/20 07:17:07;;;;;;;5.30;0.88;;;7.10;99.90;;;;;;4954442;29;20098;-32
2021/12/20 07:19:33;;;;;;;13.93;1.83;;;7.10;99.90;;;;;;4954471;29;20536;-31
2021/12/20 07:21:59;;;;;;;7.32;1.60;;;7.20;99.90;;;;;;4953709;29;20122;-34
2021/12/20 07:24:24;;;;;;;8.07;1.00;;;7.20;99.90;;;;;;4954161;28;20031;-34
2021/12/20 07:26:50;;;;;;;11.90;1.65;;;7.20;99.90;;;;;;4954175;28;20078;-36
2021/12/20 07:29:19;;;;;;;6.25;1.75;;;7.20;99.90;;;;;;4937067;29;20173;-34
2021/12/20 07:31:45;;;;;;;16.25;2.30;;;7.20;99.90;;;;;;4954337;29;20495;-44
2021/12/20 07:34:11;;;;;;;9.32;1.75;;;7.20;99.90;;;;;;4954114;29;20103;-34
2021/12/20 07:36:37;;;;;;;16.35;1.88;;;7.20;99.90;;;;;;4952207;29;20102;-37
2021/12/20 07:39:05;;;;;;;9.27;1.13;;;7.20;99.90;;;;;;4954018;29;20580;-40
2021/12/20 07:41:31;;;;;;;9.40;1.73;;;7.20;99.90;;;;;;4949927;29;20055;-35
2021/12/20 07:43:57;;;;;;;14.35;1.63;;;7.20;99.90;;;;;;4936356;29;20042;-34
2021/12/20 07:46:22;;;;;;;7.18;1.50;;;7.10;99.90;;;;;;4953805;28;20063;-35
2021/12/20 07:48:49;;;;;;;5.82;1.83;;;7.10;99.90;;;;;;4956679;29;20027;-43
2021/12/20 07:51:17;;;;;;;12.57;1.17;;;7.10;99.90;;;;;;4957076;29;20477;-40
2021/12/20 07:53:43;;;;;;;6.00;1.00;;;7.10;99.90;;;;;;4956658;29;20023;-36
2021/12/20 07:56:09;;;;;;;6.47;1.55;;;7.10;99.90;;;;;;4957301;29;20472;-33
2021/12/20 07:58:35;;;;;;;6.13;1.17;;;7.20;99.90;;;;;;4957237;29;20038;-38
2021/12/20 08:01:03;;;;;;;11.10;1.50;;;7.10;99.90;;;;;;4956885;29;20027;-37
2021/12/20 08:03:29;;;;;;;9.05;1.27;;;7.10;99.90;;;;;;4956489;29;20035;-37
2021/12/20 08:05:55;;;;;;;8.98;1.67;;;7.10;99.90;;;;;;4938880;29;20403;-36
2021/12/20 08:08:21;;;;;;;13.55;1.38;;;7.10;99.90;;;;;;4957190;29;20024;-34
2021/12/20 08:10:46;;;;;;;6.30;1.10;;;7.10;99.90;;;;;;4952522;29;20436;-39
2021/12/20 08:13:13;;;;;;;11.85;1.38;;;7.10;99.90;;;;;;4956996;29;20051;-35
2021/12/20 08:15:39;;;;;;;6.97;1.10;;;7.10;99.90;;;;;;4948502;29;20015;-33
2021/12/20 08:18:06;;;;;;;10.00;2.17;;;7.10;99.90;;;;;;4953101;29;20051;-34
2021/12/20 08:20:31;;;;;;;10.55;1.60;;;7.20;99.90;;;;;;4954241;29;20019;-31
2021/12/20 08:22:57;;;;;;;12.40;1.73;;;7.20;99.90;;;;;;4955655;29;20031;-34
2021/12/20 08:25:23;;;;;;;9.48;1.17;;;7.20;99.90;;;;;;4956756;29;20030;-33
2021/12/20 08:27:50;;;;;;;5.78;1.70;;;7.20;99.90;;;;;;4956820;29;20038;-37
2021/12/20 08:30:17;;;;;;;4.32;1.38;;;7.30;99.90;;;;;;4956350;28;20407;-37
2021/12/20 08:32:43;;;;;;;12.25;2.20;;;7.30;99.90;;;;;;4956828;29;20367;-41
2021/12/20 08:35:10;;;;;;;7.18;1.38;;;7.30;99.90;;;;;;4956840;29;20514;-42
2021/12/20 08:37:36;;;;;;;5.55;1.15;;;7.40;99.90;;;;;;4956564;29;20446;-33
2021/12/20 08:40:04;;;;;;;8.02;1.50;;;7.40;99.90;;;;;;4954619;29;20460;-34
2021/12/20 08:42:30;;;;;;;5.15;0.90;;;7.40;99.90;;;;;;4941465;29;20048;-34
2021/12/20 08:44:56;;;;;;;7.75;1.30;;;7.40;99.90;;;;;;4943943;29;20023;-35
2021/12/20 08:47:21;;;;;;;7.38;1.00;;;7.50;99.90;;;;;;4956380;29;20030;-31
2021/12/20 08:49:47;;;;;;;7.40;0.93;;;7.50;99.90;;;;;;4956263;29;20026;-34
2021/12/20 08:52:13;;;;;;;7.20;1.23;;;7.50;99.90;;;;;;4954278;29;20015;-33
2021/12/20 08:54:39;;;;;;;10.82;1.25;;;7.50;99.90;;;;;;4956011;29;20464;-39
2021/12/20 08:57:07;;;;;;;3.80;0.90;;;7.50;99.90;;;;;;4956271;29;20090;-38
2021/12/20 08:59:33;;;;;;;11.90;2.13;;;7.60;99.90;;;;;;4955529;28;20042;-37
2021/12/20 09:02:00;;;;;;;8.75;1.23;;;7.60;99.90;;;;;;4953469;29;20027;-37
2021/12/20 09:04:26;;;;;;;3.42;0.70;;;7.60;99.90;;;;;;4956291;29;20427;-34
2021/12/20 09:06:53;;;;;;;6.10;1.33;;;7.60;99.90;;;;;;4955375;29;20037;-32
2021/12/20 09:09:19;;;;;;;4.45;1.15;;;7.70;99.90;;;;;;4954966;29;20028;-38
2021/12/20 09:11:45;;;;;;;8.98;1.40;;;7.70;99.90;;;;;;4955742;29;20066;-34
2021/12/20 09:14:13;;;;;;;6.88;1.25;;;7.70;99.90;;;;;;4951907;29;20380;-31
2021/12/20 09:16:39;;;;;;;3.70;0.82;;;7.70;99.90;;;;;;4955364;29;20495;-42
2021/12/20 09:19:05;;;;;;;7.65;1.17;;;7.70;99.90;;;;;;4952979;28;20543;-34
2021/12/20 09:21:31;;;;;;;5.97;1.20;;;7.70;99.90;;;;;;4954120;29;20484;-44
2021/12/20 09:23:57;;;;;;;2.95;1.02;;;7.70;99.90;;;;;;4955208;29;20065;-32
2021/12/20 09:26:22;;;;;;;6.65;1.55;;;7.80;99.90;;;;;;4955378;29;20024;-32
2021/12/20 09:28:48;;;;;;;5.65;1.05;;;7.80;99.90;;;;;;4955345;29;20067;-37
2021/12/20 09:31:14;;;;;;;5.22;1.60;;;7.80;99.90;;;;;;4955342;29;20476;-32
2021/12/20 09:33:40;;;;;;;2.53;0.85;;;7.70;99.90;;;;;;4954913;29;20035;-32
2021/12/20 09:36:06;;;;;;;2.53;1.52;;;7.80;99.90;;;;;;4955318;28;20023;-43
2021/12/20 09:38:32;;;;;;;7.88;1.40;;;7.80;99.90;;;;;;4954714;28;20499;-35
2021/12/20 09:43:40;;;;;;;7.93;1.83;;;7.90;99.90;;;;;;4954283;29;20035;-32
2021/12/20 09:46:06;;;;;;;10.48;1.20;;;7.80;99.90;;;;;;4955256;29;20027;-34
2021/12/20 09:48:34;;;;;;;11.13;2.30;;;7.80;99.90;;;;;;4936556;29;20043;-43
2021/12/20 09:51:01;;;;;;;8.88;0.90;;;7.80;99.90;;;;;;4938505;29;20527;-36
2021/12/20 09:53:26;;;;;;;6.88;1.15;;;7.80;99.90;;;;;;4954583;29;20039;-35
2021/12/20 09:55:53;;;;;;;7.07;0.93;;;7.80;99.90;;;;;;4954631;29;20031;-33
2021/12/20 09:58:23;;;;;;;6.68;1.33;;;7.80;99.90;;;;;;4954759;29;20027;-36
2021/12/20 10:00:50;;;;;;;14.35;2.15;;;7.80;99.90;;;;;;4955058;29;20547;-37
2021/12/20 10:03:20;;;;;;;9.98;1.60;;;7.80;99.90;;;;;;4954545;29;20098;-36
2021/12/20 10:05:46;;;;;;;5.57;0.77;;;7.80;99.90;;;;;;4954090;29;20459;-34
2021/12/20 10:08:15;;;;;;;7.68;0.95;;;7.80;99.90;;;;;;4953936;29;20137;-33
2021/12/20 10:10:44;;;;;;;11.50;1.42;;;7.80;99.90;;;;;;4953673;28;20455;-39
2021/12/20 10:13:22;;;;;;;10.90;2.10;;;7.80;99.90;;;;;;4954406;29;20023;-39
2021/12/20 10:15:48;;;;;;;15.80;1.95;;;7.90;99.90;;;;;;4954269;29;20399;-37
2021/12/20 10:18:15;;;;;;;5.90;2.58;;;7.90;99.90;;;;;;4953449;29;20487;-39
2021/12/20 10:20:42;;;;;;;9.95;1.42;;;7.80;99.90;;;;;;4953533;29;20029;-35
2021/12/20 10:23:07;;;;;;;9.90;1.70;;;7.80;99.90;;;;;;4936429;29;20074;-33
2021/12/20 10:25:35;;;;;;;12.93;1.40;;;7.90;99.90;;;;;;4954524;29;20420;-39
2021/12/20 10:28:10;;;;;;;7.50;1.17;;;7.90;99.90;;;;;;4954509;29;20023;-35
2021/12/20 10:30:39;;;;;;;6.57;1.33;;;7.80;99.90;;;;;;4946870;29;20488;-33
2021/12/20 10:33:09;;;;;;;11.70;1.65;;;7.80;99.90;;;;;;4954491;29;20019;-38
2021/12/20 10:35:39;;;;;;;11.60;1.67;;;7.70;99.90;;;;;;4954087;29;20105;-36
2021/12/20 10:38:29;;;;;;;7.90;1.05;;;7.80;99.90;;;;;;4954373;29;20659;-33
2021/12/20 10:41:01;;;;;;;8.98;1.60;;;7.90;99.90;;;;;;4935474;29;20500;-34
2021/12/20 10:43:32;;;;;;;7.70;1.15;;;8.00;99.90;;;;;;4954154;29;20468;-35
2021/12/20 10:45:58;;;;;;;5.80;1.27;;;8.00;99.90;;;;;;4953987;29;20034;-34
2021/12/20 10:48:31;;;;;;;10.70;1.98;;;8.10;99.90;;;;;;4954230;29;20035;-33
2021/12/20 10:50:58;;;;;;;6.25;1.00;;;8.20;99.90;;;;;;4953468;29;20110;-39
2021/12/20 10:53:25;;;;;;;14.07;1.48;;;8.30;99.90;;;;;;4921441;29;20032;-34
2021/12/20 10:55:54;;;;;;;9.43;1.60;;;8.20;99.90;;;;;;4937240;29;20486;-36
2021/12/20 10:58:34;;;;;;;4.75;1.02;;;8.20;99.90;;;;;;4950931;29;20086;-39
2021/12/20 11:01:30;;;;;;;9.02;1.75;;;8.20;99.90;;;;;;4953813;29;20480;-36
2021/12/20 11:04:10;;;;;;;1.97;1.17;;;8.40;99.90;;;;;;4941275;29;20496;-42
2021/12/20 11:09:28;;;;;;;2.30;0.80;;;8.20;99.90;;;;;;4953938;29;20089;-35
2021/12/20 11:11:59;;;;;;;3.53;1.20;;;8.30;99.90;;;;;;4953643;29;20039;-33
2021/12/20 11:14:31;;;;;;;6.57;1.17;;;8.40;99.90;;;;;;4953382;29;20082;-33
2021/12/20 11:16:59;;;;;;;7.57;1.70;;;8.40;99.90;;;;;;4954033;29;20035;-33
2021/12/20 11:19:28;;;;;;;9.75;1.23;;;8.50;99.90;;;;;;4954193;29;20051;-37
2021/12/20 11:21:56;;;;;;;10.85;1.10;;;8.70;99.90;;;;;;4954570;28;20030;-37
2021/12/20 11:24:28;;;;;;;7.68;1.00;;;8.70;99.90;;;;;;4957422;29;20567;-34
2021/12/20 11:26:55;;;;;;;4.28;1.02;;;8.80;99.90;;;;;;4957778;29;20502;-35
2021/12/20 11:29:21;;;;;;;3.83;0.90;;;8.70;99.90;;;;;;4957564;29;20035;-53
2021/12/20 11:31:48;;;;;;;8.38;1.00;;;8.70;99.90;;;;;;4957085;29;20031;-32
2021/12/20 11:34:14;;;;;;;5.80;1.10;;;8.70;99.90;;;;;;4956424;29;20058;-34
2021/12/20 11:36:40;;;;;;;9.63;1.20;;;8.60;99.90;;;;;;4957597;29;20067;-34
2021/12/20 11:39:07;;;;;;;7.18;0.63;;;8.60;99.90;;;;;;4957120;29;20480;-38
2021/12/20 11:41:34;;;;;;;10.65;1.50;;;8.40;99.90;;;;;;4956846;29;20090;-39
2021/12/20 11:44:02;;;;;;;5.05;0.80;;;8.40;99.90;;;;;;4956991;29;20423;-41
2021/12/20 11:46:40;;;;;;;1.42;0.45;;;8.40;99.90;;;;;;4957662;28;20050;-37
2021/12/20 11:49:06;;;;;;;;;;;8.50;99.90;;;;;;4957184;29;20024;-39
2021/12/20 11:52:01;;;;;;;2.80;0.75;;;8.60;99.90;;;;;;4957287;29;19932;-38
2021/12/20 11:54:40;;;;;;;4.82;0.70;;;8.60;99.90;;;;;;4953851;29;20472;-35
2021/12/20 11:57:08;;;;;;;5.18;1.08;;;8.40;99.90;;;;;;4947295;28;20042;-38
2021/12/20 11:59:51;;;;;;;8.63;0.95;;;8.40;99.90;;;;;;4957177;29;20491;-43
2021/12/20 12:02:29;;;;;;;8.07;0.98;;;8.40;99.90;;;;;;4956491;29;20490;-37
2021/12/20 12:05:09;;;;;;;8.00;1.10;;;8.50;99.90;;;;;;4956849;29;20545;-38
2021/12/20 12:07:37;;;;;;;8.55;1.88;;;8.50;99.90;;;;;;4956946;29;20476;-35
2021/12/20 12:10:16;;;;;;;;;;;8.50;99.90;;;;;;4957240;29;20023;-42
2021/12/20 12:12:44;;;;;;;4.45;0.82;;;8.50;99.90;;;;;;4956167;29;19911;-38
2021/12/20 12:15:21;;;;;;;5.43;1.08;;;8.60;99.90;;;;;;4957160;28;20019;-41
2021/12/20 12:17:58;;;;;;;2.27;0.73;;;8.60;99.90;;;;;;4956697;29;20034;-35
2021/12/20 12:20:46;;;;;;;2.63;0.60;;;8.60;99.90;;;;;;4956868;29;20259;-37
2021/12/20 12:23:27;;;;;;;8.25;0.77;;;8.60;99.90;;;;;;4956534;29;20030;-35
2021/12/20 12:26:00;;;;;;;3.72;0.73;;;8.60;99.90;;;;;;4956295;29;20054;-35
2021/12/20 12:28:47;;;;;;;4.20;0.75;;;8.60;99.90;;;;;;4937425;29;20087;-34
2021/12/20 12:31:13;;;;;;;2.28;0.65;;;8.70;99.90;;;;;;4955746;29;20487;-36
2021/12/20 12:33:40;;;;;;;5.03;1.08;;;8.70;99.90;;;;;;4953105;28;20035;-37
2021/12/20 12:36:22;;;;;;;4.07;0.50;;;8.60;99.90;;;;;;4956572;29;20023;-31
2021/12/20 12:38:47;;;;;;;0.95;0.35;;;8.60;99.90;;;;;;4943853;29;20031;-37
2021/12/20 12:41:19;;;;;;;6.78;0.63;;;8.60;99.90;;;;;;4942098;29;20054;-34
2021/12/20 12:43:53;;;;;;;4.22;0.55;;;8.60;99.90;;;;;;4956450;29;20170;-39
2021/12/20 12:46:41;;;;;;;7.35;0.70;;;8.60;99.90;;;;;;4955941;29;20046;-36
2021/12/20 12:49:29;;;;;;;2.47;0.60;;;8.60;99.90;;;;;;4956018;29;20042;-33
2021/12/20 12:52:31;;;;;;;3.38;0.60;;;8.60;99.90;;;;;;4936274;29;20043;-34
2021/12/20 12:55:09;;;;;;;5.05;1.17;;;8.70;99.90;;;;;;4862173;29;20037;-31
2021/12/20 12:57:40;;;;;;;4.82;1.00;;;8.70;99.90;;;;;;4946666;29;20476;-34
2021/12/20 13:00:19;;;;;;;4.80;1.15;;;8.50;99.90;;;;;;4954495;29;20023;-32
2021/12/20 13:02:48;;;;;;;4.30;0.85;;;8.60;99.90;;;;;;4952984;29;20041;-34
2021/12/20 13:05:17;;;;;;;5.65;0.90;;;8.60;99.90;;;;;;4940342;29;20417;-33
2021/12/20 13:07:47;;;;;;;2.42;0.75;;;8.60;99.90;;;;;;4954839;29;20483;-31
2021/12/20 13:10:17;;;;;;;2.75;0.57;;;8.70;99.90;;;;;;4955041;29;20034;-34
2021/12/20 13:12:54;;;;;;;10.23;0.90;;;8.70;99.90;;;;;;4955784;29;20550;-37
2021/12/20 13:15:39;;;;;;;9.63;1.20;;;8.70;99.90;;;;;;4937884;29;20046;-39
2021/12/20 13:18:10;;;;;;;4.10;0.70;;;8.60;99.90;;;;;;4938249;29;20338;-37